Time;durP1;ratioP1;P1;durP2;ratioP2;P2;SDS_P1;SDS_P2;PMS_P1;PMS_P2;Temp;Humidity;BMP_temperature;BMP_pressure;BME280_temperature;BME280_humidity;BME280_pressure;Samples;Min_cycle;Max_cycle;Signal;HPM_P1;HPM_P2
2022/07/24 00:02:23;;;;;;;5.67;5.13;;;19.80;99.90;;;;;;5110995;28;20480;-49
2022/07/24 00:04:50;;;;;;;6.40;4.50;;;19.80;99.90;;;;;;5110319;28;20442;-48
2022/07/24 00:07:17;;;;;;;5.60;4.50;;;19.80;99.90;;;;;;5110501;28;20507;-45
2022/07/24 00:09:44;;;;;;;6.47;5.40;;;19.90;99.90;;;;;;5110361;28;20443;-49
2022/07/24 00:12:11;;;;;;;6.83;4.40;;;19.90;99.90;;;;;;5110054;28;20478;-45
2022/07/24 00:14:38;;;;;;;7.90;5.07;;;20.00;99.90;;;;;;5110414;28;20515;-46
2022/07/24 00:17:05;;;;;;;6.00;5.20;;;20.00;99.90;;;;;;5110073;28;20514;-46
2022/07/24 00:19:34;;;;;;;7.03;5.70;;;20.00;99.90;;;;;;5110110;28;20499;-46
2022/07/24 00:22:02;;;;;;;7.27;5.70;;;20.00;99.90;;;;;;5109838;28;20524;-48
2022/07/24 00:24:29;;;;;;;5.53;5.00;;;19.90;99.90;;;;;;5110139;28;20945;-48
2022/07/24 00:26:56;;;;;;;6.00;4.90;;;19.80;99.90;;;;;;5110269;28;20443;-45
2022/07/24 00:29:23;;;;;;;6.17;4.73;;;19.70;99.90;;;;;;5109947;28;20443;-46
2022/07/24 00:31:50;;;;;;;5.60;4.90;;;19.60;99.90;;;;;;5109822;28;20494;-46
2022/07/24 00:34:17;;;;;;;7.07;5.33;;;19.60;99.90;;;;;;5110246;28;20935;-46
2022/07/24 00:36:45;;;;;;;5.30;4.80;;;19.60;99.90;;;;;;5110233;28;20446;-49
2022/07/24 00:39:13;;;;;;;6.73;5.30;;;19.60;99.90;;;;;;5109823;28;20430;-46
2022/07/24 00:41:40;;;;;;;5.67;4.90;;;19.60;99.90;;;;;;5110009;28;20474;-46
2022/07/24 00:44:09;;;;;;;5.23;4.73;;;19.70;99.90;;;;;;5110090;28;20800;-46
2022/07/24 00:46:40;;;;;;;6.20;5.60;;;19.70;99.90;;;;;;5110107;28;20955;-46
2022/07/24 00:49:09;;;;;;;5.63;4.87;;;19.60;99.90;;;;;;5110011;28;20959;-46
2022/07/24 00:51:37;;;;;;;5.77;5.17;;;19.50;99.90;;;;;;5110162;28;20951;-48
2022/07/24 00:54:07;;;;;;;7.10;5.30;;;19.50;99.90;;;;;;5109785;28;20919;-48
2022/07/24 00:56:34;;;;;;;6.17;4.87;;;19.60;99.90;;;;;;5109969;28;20998;-46
2022/07/24 00:59:02;;;;;;;5.60;5.10;;;19.60;99.90;;;;;;5109784;28;20439;-46
2022/07/24 01:01:29;;;;;;;6.80;5.10;;;19.50;99.90;;;;;;5109840;28;20458;-47
2022/07/24 01:03:56;;;;;;;5.67;5.00;;;19.60;99.90;;;;;;5109949;28;20442;-47
2022/07/24 01:06:24;;;;;;;4.90;4.50;;;19.60;99.90;;;;;;5109986;28;20519;-46
2022/07/24 01:08:51;;;;;;;6.23;5.63;;;19.60;99.90;;;;;;5113483;28;20986;-46
2022/07/24 01:11:20;;;;;;;7.27;5.63;;;19.60;99.90;;;;;;5113636;28;20482;-46
2022/07/24 01:13:48;;;;;;;6.60;5.03;;;19.60;99.90;;;;;;5113626;28;20816;-45
2022/07/24 01:16:16;;;;;;;6.40;4.70;;;19.50;99.90;;;;;;5113728;28;20431;-46
2022/07/24 01:18:43;;;;;;;5.50;5.00;;;19.60;99.90;;;;;;5113249;28;20446;-49
2022/07/24 01:21:11;;;;;;;6.53;5.07;;;19.60;99.90;;;;;;5112979;28;20483;-46
2022/07/24 01:23:39;;;;;;;5.17;4.67;;;19.60;99.90;;;;;;5113628;28;20451;-45
2022/07/24 01:26:08;;;;;;;6.40;5.20;;;19.60;99.90;;;;;;5113562;28;20446;-46
2022/07/24 01:28:35;;;;;;;6.27;5.67;;;19.60;99.90;;;;;;5113345;28;20852;-47
2022/07/24 01:31:02;;;;;;;7.37;5.10;;;19.50;99.90;;;;;;5112803;28;20474;-46
2022/07/24 01:33:29;;;;;;;6.93;6.27;;;19.60;99.90;;;;;;5113173;28;20427;-46
2022/07/24 01:35:57;;;;;;;5.10;4.60;;;19.50;99.90;;;;;;5113463;28;20442;-47
2022/07/24 01:38:25;;;;;;;4.90;4.47;;;19.50;99.90;;;;;;5113174;28;20527;-50
2022/07/24 01:40:52;;;;;;;6.37;4.77;;;19.40;99.90;;;;;;5112941;28;20453;-47
2022/07/24 01:43:19;;;;;;;7.50;4.43;;;19.40;99.90;;;;;;5113147;28;20439;-45
2022/07/24 01:45:46;;;;;;;6.40;5.70;;;19.30;99.90;;;;;;5112802;28;20442;-49
2022/07/24 01:48:13;;;;;;;6.73;4.93;;;19.10;99.90;;;;;;5113036;28;20485;-46
2022/07/24 01:50:40;;;;;;;4.53;4.13;;;19.20;99.90;;;;;;5112584;28;20450;-51
2022/07/24 01:53:07;;;;;;;6.60;5.13;;;19.20;99.90;;;;;;5112931;28;20438;-48
2022/07/24 01:55:36;;;;;;;7.30;5.50;;;19.20;99.90;;;;;;5112976;28;20454;-46
2022/07/24 01:58:03;;;;;;;6.57;5.30;;;19.10;99.90;;;;;;5112832;28;20962;-46
2022/07/24 02:00:30;;;;;;;7.53;5.77;;;19.10;99.90;;;;;;5112583;28;20471;-46
2022/07/24 02:02:57;;;;;;;5.20;4.70;;;19.10;99.90;;;;;;5112777;28;20458;-46
2022/07/24 02:05:24;;;;;;;6.00;5.13;;;19.10;99.90;;;;;;5112759;28;20500;-46
2022/07/24 02:07:57;;;;;;;5.20;4.70;;;19.10;99.90;;;;;;5112789;28;20447;-45
2022/07/24 02:10:25;;;;;;;8.23;5.13;;;19.10;99.90;;;;;;5112292;28;20523;-47
2022/07/24 02:12:53;;;;;;;5.83;5.27;;;19.00;99.90;;;;;;5112230;28;20482;-46
2022/07/24 02:15:20;;;;;;;7.10;6.40;;;19.00;99.90;;;;;;5112549;28;21015;-49
2022/07/24 02:17:48;;;;;;;5.43;4.93;;;19.00;99.90;;;;;;5112293;28;20943;-46
2022/07/24 02:20:15;;;;;;;5.33;4.83;;;19.00;99.90;;;;;;5112227;28;20491;-48
2022/07/24 02:22:42;;;;;;;5.50;5.00;;;19.00;99.90;;;;;;5111894;28;20455;-46
2022/07/24 02:25:10;;;;;;;5.53;5.00;;;19.00;99.90;;;;;;5112200;28;20423;-45
2022/07/24 02:27:38;;;;;;;11.37;5.40;;;18.90;99.90;;;;;;5112119;28;20435;-47
2022/07/24 02:30:09;;;;;;;5.37;4.63;;;18.80;99.90;;;;;;5112014;28;20488;-45
2022/07/24 02:32:36;;;;;;;7.10;5.03;;;18.90;99.90;;;;;;5111883;28;20489;-46
2022/07/24 02:35:03;;;;;;;6.97;5.17;;;18.80;99.90;;;;;;5112140;28;20500;-47
2022/07/24 02:37:30;;;;;;;7.80;5.13;;;18.80;99.90;;;;;;5111890;28;20439;-48
2022/07/24 02:39:57;;;;;;;5.90;5.40;;;18.80;99.90;;;;;;5111929;28;20447;-48
2022/07/24 02:42:24;;;;;;;5.50;4.73;;;18.70;99.90;;;;;;5111705;28;20875;-48
2022/07/24 02:44:51;;;;;;;9.80;4.80;;;18.70;99.90;;;;;;5111964;28;20485;-46
2022/07/24 02:47:20;;;;;;;5.60;5.00;;;18.80;99.90;;;;;;5111953;28;20439;-46
2022/07/24 02:49:47;;;;;;;5.87;5.27;;;18.80;99.90;;;;;;5111625;28;20462;-46
2022/07/24 02:52:14;;;;;;;8.07;5.50;;;18.80;99.90;;;;;;5111473;28;20936;-46
2022/07/24 02:54:41;;;;;;;6.00;5.37;;;18.80;99.90;;;;;;5111731;28;20458;-47
2022/07/24 02:57:08;;;;;;;6.23;5.63;;;18.80;99.90;;;;;;5111707;28;20453;-46
2022/07/24 02:59:35;;;;;;;7.50;5.23;;;18.90;99.90;;;;;;5111522;28;20438;-50
2022/07/24 03:02:02;;;;;;;6.43;5.37;;;18.90;99.90;;;;;;5111361;28;20455;-47
2022/07/24 03:04:30;;;;;;;5.77;5.23;;;18.70;99.90;;;;;;5111559;28;20447;-46
2022/07/24 03:06:57;;;;;;;6.67;5.30;;;18.70;99.90;;;;;;5111342;28;20434;-49
2022/07/24 03:09:25;;;;;;;6.50;5.60;;;18.70;99.90;;;;;;5111103;28;20439;-47
2022/07/24 03:11:52;;;;;;;10.30;6.37;;;18.70;99.90;;;;;;5111166;28;20498;-49
2022/07/24 03:14:19;;;;;;;6.50;5.80;;;18.70;99.90;;;;;;5111315;28;20435;-46
2022/07/24 03:16:46;;;;;;;6.50;5.80;;;18.60;99.90;;;;;;5111290;28;20446;-48
2022/07/24 03:19:13;;;;;;;7.87;5.83;;;18.60;99.90;;;;;;5110960;28;20453;-47
2022/07/24 03:21:41;;;;;;;6.30;5.70;;;18.50;99.90;;;;;;5110938;28;20967;-46
2022/07/24 03:24:08;;;;;;;6.90;6.20;;;18.40;99.90;;;;;;5110949;28;20876;-46
2022/07/24 03:26:35;;;;;;;6.40;5.80;;;18.40;99.90;;;;;;5111157;28;20447;-48
2022/07/24 03:29:02;;;;;;;5.77;5.27;;;18.30;99.90;;;;;;5110507;28;20504;-46
2022/07/24 03:31:29;;;;;;;6.20;5.60;;;18.40;99.90;;;;;;5163286;22;20543;-46
2022/07/24 03:33:56;;;;;;;6.47;5.03;;;18.50;99.90;;;;;;5050418;28;20450;-48
2022/07/24 03:36:23;;;;;;;6.43;5.70;;;18.60;99.90;;;;;;5050335;28;20453;-49
2022/07/24 03:38:52;;;;;;;6.60;5.80;;;18.60;99.90;;;;;;5050402;28;20495;-48
2022/07/24 03:41:19;;;;;;;6.77;5.60;;;18.60;99.90;;;;;;5050220;28;21010;-48
2022/07/24 03:43:46;;;;;;;5.90;4.87;;;18.70;99.90;;;;;;5050126;28;20445;-48
2022/07/24 03:46:13;;;;;;;6.40;5.80;;;18.70;99.90;;;;;;5050139;28;20449;-51
2022/07/24 03:48:40;;;;;;;6.27;5.73;;;18.70;99.90;;;;;;5050063;28;20441;-51
2022/07/24 03:51:07;;;;;;;8.23;5.40;;;18.80;99.90;;;;;;5050070;28;20938;-48
2022/07/24 03:53:34;;;;;;;7.83;5.70;;;18.80;99.90;;;;;;5049832;28;21040;-48
2022/07/24 03:56:06;;;;;;;7.57;6.77;;;18.80;99.90;;;;;;5050114;28;20446;-48
2022/07/24 03:58:33;;;;;;;6.80;5.97;;;18.80;99.90;;;;;;5049980;28;20453;-50
2022/07/24 04:01:00;;;;;;;8.30;5.53;;;18.80;99.90;;;;;;5049591;28;20930;-48
2022/07/24 04:03:27;;;;;;;6.77;5.03;;;18.90;99.90;;;;;;5049886;28;21032;-50
2022/07/24 04:05:54;;;;;;;5.57;4.97;;;18.90;99.90;;;;;;5049952;28;20503;-48
2022/07/24 04:08:21;;;;;;;7.80;5.67;;;18.90;99.90;;;;;;5049937;28;20452;-50
2022/07/24 04:10:48;;;;;;;6.90;5.70;;;18.90;99.90;;;;;;5049620;28;20449;-44
2022/07/24 04:13:16;;;;;;;5.47;4.97;;;18.90;99.90;;;;;;5049599;28;20991;-48
2022/07/24 04:15:43;;;;;;;8.43;6.40;;;18.90;99.90;;;;;;5049850;28;20485;-53
2022/07/24 04:18:10;;;;;;;6.87;6.23;;;18.90;99.90;;;;;;5049795;28;20445;-48
2022/07/24 04:20:37;;;;;;;7.60;5.40;;;18.90;99.90;;;;;;5049874;28;20799;-49
2022/07/24 04:23:04;;;;;;;6.30;5.80;;;18.90;99.90;;;;;;5049410;28;20465;-48
2022/07/24 04:25:32;;;;;;;7.77;6.07;;;18.90;99.90;;;;;;5049761;28;20503;-48
2022/07/24 04:27:59;;;;;;;6.10;5.50;;;19.00;99.90;;;;;;5049608;28;20434;-50
2022/07/24 04:30:28;;;;;;;6.70;5.70;;;18.90;99.90;;;;;;5049384;28;20441;-48
2022/07/24 04:32:55;;;;;;;6.47;5.87;;;18.90;99.90;;;;;;5049269;28;20481;-50
2022/07/24 04:35:22;;;;;;;6.20;5.60;;;18.90;99.90;;;;;;5049559;28;20499;-49
2022/07/24 04:37:49;;;;;;;11.00;7.13;;;19.00;99.90;;;;;;5049816;28;20480;-51
2022/07/24 04:40:16;;;;;;;6.63;5.90;;;18.90;99.90;;;;;;5049396;28;20515;-50
2022/07/24 04:42:43;;;;;;;6.73;6.00;;;19.00;99.90;;;;;;5053548;28;20469;-50
2022/07/24 04:45:11;;;;;;;6.83;6.13;;;18.90;99.90;;;;;;5053501;28;20491;-51
2022/07/24 04:47:39;;;;;;;7.40;5.53;;;18.90;99.90;;;;;;5053575;28;20962;-48
2022/07/24 04:50:08;;;;;;;7.00;6.30;;;18.80;99.90;;;;;;5053199;28;20499;-49
2022/07/24 04:52:35;;;;;;;8.57;5.90;;;18.80;99.90;;;;;;5053412;28;20903;-48
2022/07/24 04:55:02;;;;;;;6.47;5.53;;;18.80;99.90;;;;;;5053686;28;20499;-51
2022/07/24 04:57:29;;;;;;;8.13;6.60;;;18.70;99.90;;;;;;5053448;28;20441;-48
2022/07/24 04:59:56;;;;;;;7.57;6.30;;;18.70;99.90;;;;;;5052975;28;20523;-50
2022/07/24 05:02:23;;;;;;;8.20;6.43;;;18.90;99.90;;;;;;5053208;28;20464;-48
2022/07/24 05:04:51;;;;;;;5.87;4.87;;;18.90;99.90;;;;;;5053681;28;20914;-50
2022/07/24 05:07:18;;;;;;;6.77;6.17;;;18.90;99.90;;;;;;5053280;28;20449;-48
2022/07/24 05:09:45;;;;;;;6.00;5.40;;;18.90;99.90;;;;;;5053059;28;20857;-52
2022/07/24 05:12:12;;;;;;;9.90;6.50;;;18.90;99.90;;;;;;5053316;28;20835;-48
2022/07/24 05:14:39;;;;;;;5.80;5.30;;;18.90;99.90;;;;;;5053066;28;20452;-51
2022/07/24 05:17:06;;;;;;;6.57;5.73;;;18.90;99.90;;;;;;5052940;28;20457;-48
2022/07/24 05:19:33;;;;;;;6.93;6.23;;;18.90;99.90;;;;;;5052737;28;20950;-50
2022/07/24 05:22:02;;;;;;;6.47;4.87;;;19.00;99.90;;;;;;5052756;28;20518;-48
2022/07/24 05:24:29;;;;;;;7.83;6.60;;;19.00;99.90;;;;;;5052876;28;20437;-48
2022/07/24 05:26:56;;;;;;;6.57;5.97;;;19.10;99.90;;;;;;5052868;28;20480;-48
2022/07/24 05:29:23;;;;;;;6.80;6.20;;;19.10;99.90;;;;;;5052519;28;20441;-48
2022/07/24 05:31:51;;;;;;;6.87;6.17;;;19.00;99.90;;;;;;5052492;28;20525;-48
2022/07/24 05:34:18;;;;;;;8.47;6.10;;;19.10;99.90;;;;;;5052661;28;20461;-51
2022/07/24 05:36:45;;;;;;;6.30;5.70;;;19.00;99.90;;;;;;5052485;28;20437;-49
2022/07/24 05:39:13;;;;;;;6.10;5.60;;;18.90;99.90;;;;;;5052438;28;20441;-48
2022/07/24 05:41:41;;;;;;;6.90;6.20;;;18.90;99.90;;;;;;5052407;28;20539;-48
2022/07/24 05:44:08;;;;;;;7.67;5.83;;;19.00;99.90;;;;;;5052341;28;20433;-46
2022/07/24 05:46:35;;;;;;;6.60;5.60;;;19.00;99.90;;;;;;5052512;28;20502;-48
2022/07/24 05:49:02;;;;;;;6.97;6.27;;;19.00;99.90;;;;;;5052182;28;20502;-50
2022/07/24 05:51:29;;;;;;;7.37;5.73;;;19.10;99.90;;;;;;5052258;28;20457;-48
2022/07/24 05:53:56;;;;;;;6.57;5.97;;;19.10;99.90;;;;;;5051636;28;20569;-48
2022/07/24 05:56:24;;;;;;;9.50;6.77;;;18.90;99.90;;;;;;5052201;28;20453;-48
2022/07/24 05:58:51;;;;;;;7.90;6.57;;;18.80;99.90;;;;;;5051877;28;21326;-48
2022/07/24 06:01:18;;;;;;;7.57;6.83;;;18.80;99.90;;;;;;5051947;28;20495;-49
2022/07/24 06:03:45;;;;;;;9.30;6.07;;;18.80;99.90;;;;;;5052261;28;20503;-48
2022/07/24 06:06:12;;;;;;;9.97;6.60;;;18.80;99.90;;;;;;5052107;28;20511;-50
2022/07/24 06:08:39;;;;;;;10.53;7.97;;;18.90;99.90;;;;;;5051900;28;20502;-56
2022/07/24 06:11:06;;;;;;;8.80;7.90;;;18.80;99.90;;;;;;5051874;28;20441;-53
2022/07/24 06:13:35;;;;;;;9.33;7.37;;;18.90;99.90;;;;;;5051875;28;20862;-48
2022/07/24 06:16:02;;;;;;;7.97;7.27;;;19.00;99.90;;;;;;5051860;28;20442;-48
2022/07/24 06:18:29;;;;;;;7.00;6.30;;;19.40;99.90;;;;;;5051813;28;20502;-52
2022/07/24 06:20:56;;;;;;;8.10;7.30;;;20.00;99.90;;;;;;5051370;28;20988;-48
2022/07/24 06:23:23;;;;;;;7.13;6.50;;;20.50;99.90;;;;;;5051801;28;20461;-49
2022/07/24 06:25:50;;;;;;;7.20;6.50;;;20.90;99.90;;;;;;5051793;28;20892;-48
2022/07/24 06:28:17;;;;;;;7.43;6.73;;;21.10;99.90;;;;;;5051721;28;20507;-48
2022/07/24 06:30:45;;;;;;;7.40;6.30;;;21.30;99.90;;;;;;5051402;28;20449;-50
2022/07/24 06:33:12;;;;;;;6.00;5.50;;;21.30;99.90;;;;;;5051161;28;20477;-50
2022/07/24 06:35:39;;;;;;;6.47;5.87;;;21.40;99.90;;;;;;5051532;28;20445;-48
2022/07/24 06:38:06;;;;;;;7.53;6.30;;;21.40;99.90;;;;;;5051455;28;20479;-51
2022/07/24 06:40:34;;;;;;;6.30;5.70;;;21.50;99.90;;;;;;5051225;28;20548;-48
2022/07/24 06:43:01;;;;;;;6.93;5.57;;;21.50;99.90;;;;;;5051342;28;20519;-49
2022/07/24 06:45:31;;;;;;;6.57;5.20;;;21.50;99.90;;;;;;5051214;28;20507;-48
2022/07/24 06:47:59;;;;;;;6.20;5.60;;;21.50;99.90;;;;;;5051104;28;20446;-49
2022/07/24 06:50:27;;;;;;;9.00;5.97;;;21.60;99.90;;;;;;5050800;28;20880;-48
2022/07/24 06:52:54;;;;;;;7.03;5.93;;;21.60;99.90;;;;;;5051245;28;20473;-49
2022/07/24 06:55:21;;;;;;;7.00;6.30;;;21.60;99.90;;;;;;5051156;28;21005;-50
2022/07/24 06:57:48;;;;;;;7.13;6.20;;;21.60;99.90;;;;;;5051520;28;20991;-49
2022/07/24 07:00:16;;;;;;;7.27;6.03;;;21.60;99.90;;;;;;5051118;28;20433;-49
2022/07/24 07:02:43;;;;;;;8.00;5.67;;;21.70;99.90;;;;;;5050750;28;20539;-48
2022/07/24 07:05:11;;;;;;;10.50;6.43;;;21.70;99.90;;;;;;5049974;28;20503;-51
2022/07/24 07:07:39;;;;;;;7.87;6.20;;;21.80;99.90;;;;;;5050843;28;20791;-49
2022/07/24 07:10:07;;;;;;;7.07;6.37;;;21.80;99.90;;;;;;5050661;28;20456;-52
2022/07/24 07:12:35;;;;;;;7.83;7.10;;;21.70;99.90;;;;;;5050545;28;20446;-48
2022/07/24 07:15:02;;;;;;;6.57;5.87;;;21.70;99.90;;;;;;5050665;28;21025;-48
2022/07/24 07:17:29;;;;;;;7.47;6.10;;;21.60;99.90;;;;;;5050660;28;20430;-51
2022/07/24 07:19:55;;;;;;;6.93;5.83;;;21.50;99.90;;;;;;5050557;28;20504;-48
2022/07/24 07:22:24;;;;;;;7.73;6.93;;;21.50;99.90;;;;;;5050258;28;21183;-48
2022/07/24 07:24:51;;;;;;;6.70;6.10;;;21.50;99.90;;;;;;5050700;28;20453;-53
2022/07/24 07:27:18;;;;;;;6.87;6.07;;;21.50;99.90;;;;;;5050430;28;20488;-49
2022/07/24 07:29:45;;;;;;;8.07;7.27;;;21.60;99.90;;;;;;5050356;28;20445;-53
2022/07/24 07:32:12;;;;;;;10.20;5.80;;;21.60;99.90;;;;;;5050264;28;20473;-48
2022/07/24 07:34:39;;;;;;;6.83;6.13;;;21.70;99.90;;;;;;5050321;28;20566;-48
2022/07/24 07:37:06;;;;;;;7.20;6.50;;;21.70;99.90;;;;;;5050554;28;20492;-49
2022/07/24 07:39:35;;;;;;;6.93;6.30;;;21.80;99.90;;;;;;5050079;28;20449;-48
2022/07/24 07:42:02;;;;;;;7.03;6.43;;;21.90;99.90;;;;;;5050289;28;20544;-48
2022/07/24 07:44:29;;;;;;;7.70;7.00;;;22.10;99.90;;;;;;5050080;28;20500;-50
2022/07/24 07:46:56;;;;;;;11.13;6.90;;;22.20;99.90;;;;;;5050281;28;20491;-48
2022/07/24 07:49:23;;;;;;;7.27;6.57;;;22.20;99.90;;;;;;5049943;28;20449;-51
2022/07/24 07:51:51;;;;;;;6.60;6.00;;;22.20;99.90;;;;;;5050208;28;20460;-48
2022/07/24 07:54:19;;;;;;;7.37;6.67;;;22.30;99.90;;;;;;5049844;28;20469;-48
2022/07/24 07:56:47;;;;;;;7.23;6.53;;;22.30;99.90;;;;;;5050076;28;20503;-49
2022/07/24 07:59:14;;;;;;;7.63;6.87;;;22.30;99.90;;;;;;5049586;28;20922;-51
2022/07/24 08:01:41;;;;;;;7.33;6.63;;;22.40;99.90;;;;;;5050269;28;20519;-52
2022/07/24 08:04:08;;;;;;;8.47;7.60;;;22.40;99.90;;;;;;5050066;28;20433;-50
2022/07/24 08:06:35;;;;;;;7.10;6.40;;;22.40;99.90;;;;;;5049984;28;20475;-48
2022/07/24 08:09:02;;;;;;;9.30;6.63;;;22.40;99.90;;;;;;5049876;28;20470;-51
2022/07/24 08:11:30;;;;;;;7.13;6.30;;;22.60;99.90;;;;;;5049734;28;20950;-48
2022/07/24 08:13:58;;;;;;;7.73;6.87;;;22.80;99.90;;;;;;5049814;28;20508;-48
2022/07/24 08:16:25;;;;;;;7.17;6.50;;;23.10;99.90;;;;;;5049522;28;20799;-49
2022/07/24 08:18:52;;;;;;;7.67;6.97;;;22.80;99.90;;;;;;5049624;28;20511;-48
2022/07/24 08:21:19;;;;;;;7.77;6.97;;;22.80;99.90;;;;;;5049439;28;20477;-50
2022/07/24 08:23:46;;;;;;;8.00;7.20;;;23.00;99.90;;;;;;5050017;28;20856;-48
2022/07/24 08:26:13;;;;;;;9.03;6.77;;;23.20;99.90;;;;;;5049700;28;21245;-49
2022/07/24 08:28:40;;;;;;;7.40;6.60;;;23.40;99.90;;;;;;5049591;28;20495;-46
2022/07/24 08:31:09;;;;;;;7.87;7.07;;;23.60;99.90;;;;;;5049627;28;20445;-50
2022/07/24 08:33:36;;;;;;;7.00;6.23;;;23.60;99.90;;;;;;5049355;28;20484;-49
2022/07/24 08:36:03;;;;;;;6.70;6.10;;;23.60;99.90;;;;;;5049721;28;20524;-48
2022/07/24 08:38:30;;;;;;;7.03;6.33;;;23.70;99.90;;;;;;5049617;28;20477;-50
2022/07/24 08:40:57;;;;;;;7.63;5.97;;;23.70;99.90;;;;;;5049415;28;20465;-48
2022/07/24 08:43:24;;;;;;;6.53;5.93;;;23.80;99.90;;;;;;5049485;28;20465;-52
2022/07/24 08:45:55;;;;;;;7.70;7.00;;;23.90;99.90;;;;;;5049285;28;20434;-48
2022/07/24 08:48:25;;;;;;;7.17;6.47;;;24.20;99.90;;;;;;5049500;28;20503;-49
2022/07/24 08:50:53;;;;;;;7.97;7.27;;;24.30;99.90;;;;;;5049383;28;20449;-50
2022/07/24 08:53:21;;;;;;;7.40;6.70;;;24.40;99.90;;;;;;5049335;28;20528;-49
2022/07/24 08:55:48;;;;;;;7.53;6.90;;;24.60;99.90;;;;;;5049901;28;20450;-49
2022/07/24 08:58:15;;;;;;;6.90;6.40;;;24.70;99.90;;;;;;5049793;28;20481;-50
2022/07/24 09:00:42;;;;;;;7.20;6.50;;;24.60;99.90;;;;;;5049156;28;20449;-49
2022/07/24 09:03:09;;;;;;;7.40;6.80;;;24.70;99.90;;;;;;5049451;28;20457;-49
2022/07/24 09:05:53;;;;;;;6.93;6.23;;;24.80;99.90;;;;;;5049385;28;20503;-49
2022/07/24 09:08:21;;;;;;;7.60;6.90;;;24.90;99.90;;;;;;5049256;28;20459;-49
2022/07/24 09:10:56;;;;;;;8.27;7.47;;;24.80;99.90;;;;;;5049081;28;20507;-50
2022/07/24 09:13:29;;;;;;;8.50;7.60;;;24.60;99.90;;;;;;5049125;28;20496;-50
2022/07/24 09:15:57;;;;;;;8.17;7.37;;;24.40;99.90;;;;;;5049188;28;20438;-48
2022/07/24 09:18:29;;;;;;;11.63;6.73;;;24.40;99.90;;;;;;5049097;28;20441;-48
2022/07/24 09:20:58;;;;;;;7.97;7.37;;;24.50;99.90;;;;;;5048454;28;20433;-50
2022/07/24 09:23:25;;;;;;;8.20;7.50;;;24.40;99.90;;;;;;5049010;28;20980;-50
2022/07/24 09:25:54;;;;;;;8.87;7.10;;;24.60;99.90;;;;;;5049221;28;20441;-49
2022/07/24 09:28:22;;;;;;;8.60;7.80;;;24.60;99.90;;;;;;5050555;28;20464;-49
2022/07/24 09:30:49;;;;;;;8.87;8.00;;;24.80;99.90;;;;;;5052664;28;20995;-52
2022/07/24 09:33:21;;;;;;;8.07;7.27;;;24.80;99.90;;;;;;5121660;22;20499;-47
2022/07/24 09:35:50;;;;;;;7.60;6.90;;;24.90;99.90;;;;;;5073142;28;20501;-46
2022/07/24 09:38:20;;;;;;;8.30;7.50;;;24.90;99.90;;;;;;5072445;28;20431;-46
2022/07/24 09:40:51;;;;;;;7.97;7.27;;;25.00;99.90;;;;;;5072432;28;20498;-50
2022/07/24 09:43:24;;;;;;;7.80;7.10;;;25.10;99.90;;;;;;5072750;28;20464;-46
2022/07/24 09:45:54;;;;;;;8.27;6.50;;;25.20;99.90;;;;;;5072855;28;20510;-48
2022/07/24 09:48:23;;;;;;;9.83;7.20;;;25.20;99.90;;;;;;5072462;28;20517;-46
2022/07/24 09:50:55;;;;;;;7.90;7.10;;;25.30;99.90;;;;;;5072176;28;20432;-49
2022/07/24 09:53:26;;;;;;;6.83;6.13;;;25.40;99.90;;;;;;5072162;28;20453;-48
2022/07/24 09:56:05;;;;;;;8.47;7.67;;;25.50;99.90;;;;;;5072445;28;20444;-47
2022/07/24 09:58:34;;;;;;;7.97;7.27;;;25.40;99.90;;;;;;5072215;28;21016;-46
2022/07/24 10:01:02;;;;;;;8.20;7.43;;;25.50;99.90;;;;;;5072078;28;20452;-46
2022/07/24 10:03:31;;;;;;;7.43;6.73;;;25.60;99.90;;;;;;5072083;28;20494;-50
2022/07/24 10:06:00;;;;;;;8.17;7.37;;;25.70;99.90;;;;;;5072275;28;20440;-46
2022/07/24 10:08:29;;;;;;;7.53;6.83;;;25.80;99.90;;;;;;5072050;28;20459;-46
2022/07/24 10:10:57;;;;;;;7.57;6.77;;;25.80;99.90;;;;;;5071640;28;20483;-47
2022/07/24 10:13:27;;;;;;;7.43;6.73;;;25.80;99.90;;;;;;5071841;28;20469;-46
2022/07/24 10:16:10;;;;;;;7.83;7.10;;;25.80;99.90;;;;;;5072018;28;21010;-46
2022/07/24 10:18:47;;;;;;;7.77;7.00;;;25.80;99.90;;;;;;5071956;28;20444;-47
2022/07/24 10:21:17;;;;;;;8.03;7.23;;;25.90;99.90;;;;;;5071330;28;20432;-47
2022/07/24 10:24:10;;;;;;;8.70;7.93;;;25.90;99.90;;;;;;5071880;28;20514;-47
2022/07/24 10:26:39;;;;;;;8.37;7.57;;;26.00;99.90;;;;;;5062845;28;20444;-46
2022/07/24 10:29:10;;;;;;;9.23;8.30;;;26.00;99.90;;;;;;5071437;28;20451;-47
2022/07/24 10:31:38;;;;;;;7.93;7.00;;;26.00;99.90;;;;;;5071576;28;20494;-48
2022/07/24 10:34:10;;;;;;;7.80;7.00;;;25.90;99.90;;;;;;5071408;28;20472;-46
2022/07/24 10:36:45;;;;;;;8.60;7.73;;;26.00;99.90;;;;;;5071642;28;20452;-46
2022/07/24 10:39:21;;;;;;;8.93;8.13;;;26.00;99.90;;;;;;5071168;28;20448;-48
2022/07/24 10:42:01;;;;;;;9.60;8.70;;;26.00;99.90;;;;;;5071353;28;20509;-47
2022/07/24 10:44:28;;;;;;;8.87;7.97;;;26.20;99.90;;;;;;5071226;28;20510;-49
2022/07/24 10:47:06;;;;;;;9.30;7.80;;;26.20;99.90;;;;;;5071379;28;20449;-46
2022/07/24 10:49:48;;;;;;;8.10;7.40;;;26.30;99.90;;;;;;5071162;28;20441;-50
2022/07/24 10:52:28;;;;;;;8.20;7.40;;;26.40;99.90;;;;;;5071046;28;20447;-46
2022/07/24 10:55:34;;;;;;;8.43;7.40;;;26.40;99.90;;;;;;5070822;28;20521;-46
2022/07/24 10:58:03;;;;;;;9.17;8.33;;;26.40;99.90;;;;;;5071000;28;20429;-46
2022/07/24 11:00:34;;;;;;;9.20;8.20;;;26.50;99.90;;;;;;5070991;28;20444;-49
2022/07/24 11:03:04;;;;;;;11.10;8.40;;;26.50;99.90;;;;;;5070936;28;20449;-49
2022/07/24 11:05:33;;;;;;;8.90;8.10;;;26.50;99.90;;;;;;5071065;28;20433;-46
2022/07/24 11:08:37;;;;;;;8.70;7.80;;;26.60;99.90;;;;;;5071010;28;20448;-46
2022/07/24 11:11:11;;;;;;;8.20;7.50;;;26.60;99.90;;;;;;5070801;28;20447;-48
2022/07/24 11:13:52;;;;;;;10.20;8.00;;;26.70;99.90;;;;;;5070617;28;20977;-47
2022/07/24 11:16:25;;;;;;;9.53;8.63;;;26.70;99.90;;;;;;5070805;28;20522;-48
2022/07/24 11:19:28;;;;;;;9.37;8.57;;;26.70;99.90;;;;;;5071077;28;20440;-46
2022/07/24 11:22:10;;;;;;;9.87;8.97;;;26.80;99.90;;;;;;5070321;28;20523;-47
2022/07/24 11:24:58;;;;;;;9.23;8.43;;;26.90;99.90;;;;;;5070494;28;20443;-46
2022/07/24 11:27:26;;;;;;;9.23;8.43;;;26.90;99.90;;;;;;5070348;28;20953;-48
2022/07/24 11:29:55;;;;;;;9.33;8.53;;;26.90;99.90;;;;;;5070200;28;20478;-46
2022/07/24 11:32:22;;;;;;;8.40;7.70;;;26.90;99.90;;;;;;5070319;28;20468;-46
2022/07/24 11:34:51;;;;;;;8.23;7.53;;;27.00;99.90;;;;;;5070243;28;20472;-47
2022/07/24 11:37:18;;;;;;;8.73;7.90;;;27.10;99.90;;;;;;5070359;28;20425;-46
2022/07/24 11:39:49;;;;;;;9.10;8.30;;;27.00;99.90;;;;;;5070214;28;20479;-46
2022/07/24 11:42:17;;;;;;;11.23;8.07;;;27.10;99.90;;;;;;5070561;28;20471;-46
2022/07/24 11:44:47;;;;;;;8.83;7.97;;;27.10;99.90;;;;;;5070442;28;20536;-48
2022/07/24 11:47:16;;;;;;;8.07;7.30;;;27.10;99.90;;;;;;5070609;28;20456;-46
2022/07/24 11:49:45;;;;;;;8.30;7.50;;;27.10;99.90;;;;;;5070364;28;20876;-49
2022/07/24 11:52:18;;;;;;;8.60;7.67;;;27.20;99.90;;;;;;5069565;28;20501;-46
2022/07/24 11:54:46;;;;;;;8.07;7.30;;;27.20;99.90;;;;;;5069948;28;20476;-47
2022/07/24 11:57:21;;;;;;;8.60;7.80;;;27.30;99.90;;;;;;5070538;28;20830;-46
2022/07/24 11:59:51;;;;;;;11.50;10.30;;;27.30;99.90;;;;;;5070027;28;20813;-47
2022/07/24 12:02:18;;;;;;;8.40;7.70;;;27.30;99.90;;;;;;5069914;28;20534;-46
2022/07/24 12:04:47;;;;;;;8.90;8.00;;;27.30;99.90;;;;;;5069960;28;20518;-47
2022/07/24 12:07:16;;;;;;;8.10;7.30;;;27.40;99.90;;;;;;5069828;28;20435;-46
2022/07/24 12:09:48;;;;;;;13.63;10.03;;;27.50;99.90;;;;;;5069807;28;20452;-47
2022/07/24 12:12:26;;;;;;;9.80;8.90;;;27.50;99.90;;;;;;5069952;28;20472;-50
2022/07/24 12:15:02;;;;;;;9.40;8.40;;;27.50;99.90;;;;;;5069903;28;20464;-48
2022/07/24 12:17:30;;;;;;;9.07;8.23;;;27.50;99.90;;;;;;5069748;28;20440;-49
2022/07/24 12:19:59;;;;;;;9.90;7.57;;;27.50;99.90;;;;;;5069440;28;20433;-47
2022/07/24 12:22:28;;;;;;;9.27;7.93;;;27.60;99.90;;;;;;5069354;28;20519;-46
2022/07/24 12:24:58;;;;;;;9.27;8.37;;;27.60;99.90;;;;;;5069781;28;20451;-47
2022/07/24 12:27:40;;;;;;;8.50;7.80;;;27.60;99.90;;;;;;5069720;28;20448;-47
2022/07/24 12:30:24;;;;;;;8.23;7.20;;;27.60;99.90;;;;;;5069403;28;20489;-46
2022/07/24 12:32:56;;;;;;;8.80;7.93;;;27.60;99.90;;;;;;5069217;28;20551;-47
2022/07/24 12:35:23;;;;;;;8.87;8.07;;;27.70;99.90;;;;;;5069487;28;20530;-47
2022/07/24 12:37:50;;;;;;;7.83;7.13;;;27.70;99.90;;;;;;5069415;28;20874;-48
2022/07/24 12:40:29;;;;;;;8.10;7.33;;;27.90;99.90;;;;;;5069547;28;20444;-46
2022/07/24 12:43:02;;;;;;;8.80;8.00;;;28.00;99.90;;;;;;5069456;28;20449;-50
2022/07/24 12:45:31;;;;;;;7.60;6.87;;;28.00;99.90;;;;;;5069724;28;20480;-48
2022/07/24 12:48:25;;;;;;;8.20;7.50;;;28.10;99.90;;;;;;5069430;28;20957;-46
2022/07/24 12:51:06;;;;;;;8.03;7.33;;;28.10;99.60;;;;;;5044765;28;20436;-47
2022/07/24 12:53:35;;;;;;;8.33;7.63;;;28.20;99.90;;;;;;5069119;28;20452;-47
2022/07/24 12:56:10;;;;;;;10.90;7.60;;;28.20;99.90;;;;;;5069308;28;20545;-47